Time;durP1;ratioP1;P1;durP2;ratioP2;P2;SDS_P1;SDS_P2;PMS_P1;PMS_P2;Temp;Humidity;BMP_temperature;BMP_pressure;BME280_temperature;BME280_humidity;BME280_pressure;Samples;Min_cycle;Max_cycle;Signal;HPM_P1;HPM_P2
2022/02/23 00:00:47;;;;;;;;;;;8.00;99.90;;;6.16;100.00;101046.34;5043339;28;19929;-85
2022/02/23 00:03:14;;;;;;;;;;;8.00;99.90;;;6.11;100.00;101054.03;5050377;28;19932;-85
2022/02/23 00:05:41;;;;;;;;;;;8.00;99.90;;;6.07;100.00;101048.06;5042063;28;19968;-85
2022/02/23 00:08:08;;;;;;;;;;;8.00;99.90;;;6.07;100.00;101050.78;5054386;28;20002;-85
2022/02/23 00:10:35;;;;;;;;;;;8.00;99.90;;;6.05;100.00;101054.59;5067844;28;20392;-85
2022/02/23 00:13:02;;;;;;;;;;;7.90;99.90;;;6.05;100.00;101060.00;5044907;28;19994;-85
2022/02/23 00:15:31;;;;;;;;;;;7.90;99.90;;;6.05;100.00;101065.41;5062017;28;19981;-85
2022/02/23 00:17:58;;;;;;;;;;;7.90;99.90;;;6.01;100.00;101063.97;5079526;22;19979;-84
2022/02/23 00:20:25;;;;;;;;;;;7.90;99.90;;;5.96;100.00;101071.63;5059610;28;20006;-84
2022/02/23 00:22:52;;;;;;;;;;;7.90;99.90;;;5.92;100.00;101075.59;5051621;28;20236;-84
2022/02/23 00:25:19;;;;;;;;;;;7.90;99.90;;;5.88;100.00;101078.59;5039392;28;20264;-84
2022/02/23 00:27:46;;;;;;;;;;;7.90;99.90;;;5.78;100.00;101075.00;5049776;28;20320;-84
2022/02/23 00:30:16;;;;;;;;;;;7.90;99.90;;;5.83;100.00;101078.16;5049733;28;19971;-85
2022/02/23 00:32:47;;;;;;;;;;;7.80;99.90;;;5.85;100.00;101091.53;5042038;28;19971;-84
2022/02/23 00:35:14;;;;;;;;;;;7.80;99.90;;;5.81;100.00;101087.41;5048763;28;20006;-84
2022/02/23 00:37:41;;;;;;;;;;;7.90;99.90;;;5.84;100.00;101090.66;5049789;28;19925;-84
2022/02/23 00:40:09;;;;;;;;;;;7.80;99.90;;;5.80;100.00;101094.63;5049100;28;19928;-85
2022/02/23 00:42:36;;;;;;;;;;;7.80;99.90;;;5.80;100.00;101097.31;5047849;28;19928;-84
2022/02/23 00:45:04;;;;;;;;;;;7.80;99.90;;;5.84;100.00;101106.84;5048740;28;20011;-85
2022/02/23 00:47:31;;;;;;;;;;;7.80;99.90;;;5.76;100.00;101101.31;5049659;28;19925;-85
2022/02/23 00:50:00;;;;;;;;;;;7.70;99.90;;;5.71;100.00;101114.34;5049078;28;20349;-85
2022/02/23 00:52:27;;;;;;;;;;;7.70;99.90;;;5.74;100.00;101124.03;5049692;28;19928;-84
2022/02/23 00:54:54;;;;;;;;;;;7.70;99.90;;;5.72;100.00;101116.06;5049050;28;20470;-85
2022/02/23 00:57:21;;;;;;;;;;;7.70;99.90;;;5.56;100.00;101123.84;5049023;28;19925;-84
2022/02/23 00:59:48;;;;;;;;;;;7.70;99.90;;;5.57;100.00;101114.75;5039506;28;19928;-84
2022/02/23 01:02:15;;;;;;;;;;;7.60;99.90;;;5.50;100.00;101122.53;5048513;28;19936;-84
2022/02/23 01:04:44;;;;;;;;;;;7.60;99.90;;;5.55;100.00;101122.16;5049596;28;20414;-84
2022/02/23 01:07:14;;;;;;;;;;;7.60;99.90;;;5.58;100.00;101128.13;5049152;28;20015;-84
2022/02/23 01:09:49;;;;;;;;;;;7.60;99.90;;;5.59;100.00;101123.56;5048671;28;19925;-84
2022/02/23 01:12:16;;;;;;;;;;;7.50;99.90;;;5.57;100.00;101137.19;5049195;28;19925;-85
2022/02/23 01:14:47;;;;;;;;;;;7.50;99.90;;;5.57;100.00;101134.50;5049335;28;20380;-84
2022/02/23 01:17:14;;;;;;;;;;;7.50;99.90;;;5.55;100.00;101141.03;5043028;28;19929;-84
2022/02/23 01:19:48;;;;;;;;;;;7.50;99.90;;;5.48;100.00;101155.09;5048606;28;20008;-85
2022/02/23 01:22:17;;;;;;;;;;;7.50;99.90;;;5.49;100.00;101143.28;5048496;28;19929;-85
2022/02/23 01:24:47;;;;;;;;;;;7.40;99.90;;;5.47;100.00;101152.53;5040088;28;20381;-85
2022/02/23 01:27:16;;;;;;;;;;;7.40;99.90;;;5.38;100.00;101154.19;5049093;28;19951;-84
2022/02/23 01:29:43;;;;;;;;;;;7.40;99.90;;;5.33;100.00;101167.25;5048744;28;20468;-84
2022/02/23 01:35:55;;;;;;;;;;;7.40;99.90;;;5.38;100.00;101172.22;5038849;28;19927;-84
2022/02/23 01:38:27;;;;;;;;;;;7.40;99.90;;;5.36;100.00;101166.97;5048039;28;19931;-85
2022/02/23 01:40:54;;;;;;;;;;;7.40;99.90;;;5.32;100.00;101165.53;5049168;28;19932;-84
2022/02/23 01:43:24;;;;;;;;;;;7.30;99.90;;;5.27;100.00;101167.75;5048799;28;19924;-85
2022/02/23 01:45:51;;;;;;;;;;;7.30;99.90;;;5.22;100.00;101178.97;5050269;28;19925;-85
2022/02/23 01:48:18;;;;;;;;;;;7.30;99.90;;;5.15;100.00;101176.94;5051865;28;19929;-84
2022/02/23 01:50:47;;;;;;;;;;;7.30;99.90;;;5.15;100.00;101180.47;5051487;28;20414;-84
2022/02/23 01:53:17;;;;;;;;;;;7.30;99.90;;;5.16;100.00;101186.72;5052381;28;20010;-85
2022/02/23 02:03:04;;;;;;;;;;;7.20;99.90;;;5.03;100.00;101201.28;4970362;28;19949;-84
2022/02/23 02:16:16;;;;;;;;;;;7.00;99.90;;;4.72;100.00;101194.09;4896146;29;19928;-84
2022/02/23 02:26:55;;;;;;;;;;;6.90;99.90;;;4.77;100.00;101221.53;4972808;28;20777;-84
2022/02/23 02:30:17;;;;;;;;;;;6.90;99.90;;;4.63;100.00;101212.75;4970657;28;19953;-83
2022/02/23 02:32:44;;;;;;;;;;;6.90;99.90;;;4.65;100.00;101232.34;4973408;28;19936;-84
2022/02/23 02:35:12;;;;;;;;;;;6.90;99.90;;;4.62;100.00;101227.22;5032159;28;19929;-84
2022/02/23 02:37:39;;;;;;;;;;;6.80;99.90;;;4.62;100.00;101226.38;5041514;28;19956;-85
2022/02/23 02:40:07;;;;;;;;;;;6.80;99.90;;;4.60;100.00;101223.78;5035911;28;19936;-85
2022/02/23 02:42:35;;;;;;;;;;;6.80;99.90;;;4.59;100.00;101222.09;5034372;28;19929;-84
2022/02/23 02:45:03;;;;;;;;;;;6.80;99.90;;;4.57;100.00;101226.75;5048971;28;19951;-84
2022/02/23 02:47:30;;;;;;;;;;;6.80;99.90;;;4.57;100.00;101226.75;5037800;28;19935;-84
2022/02/23 02:49:57;;;;;;;;;;;6.70;99.90;;;4.52;100.00;101231.66;5041425;28;19929;-85
2022/02/23 02:52:24;;;;;;;;;;;6.70;99.90;;;4.49;100.00;101226.53;5040693;28;19925;-84
2022/02/23 02:54:51;;;;;;;;;;;6.70;99.90;;;4.42;100.00;101242.34;5051903;28;19935;-85
2022/02/23 02:57:18;;;;;;;;;;;6.70;99.90;;;4.41;100.00;101235.25;5045796;28;19978;-85
2022/02/23 02:59:46;;;;;;;;;;;6.60;99.90;;;4.37;100.00;101246.41;5050178;28;19929;-85
2022/02/23 03:02:13;;;;;;;;;;;6.60;99.90;;;4.36;100.00;101247.38;5042861;28;19935;-84
2022/02/23 03:04:40;;;;;;;;;;;6.60;99.90;;;4.37;100.00;101243.72;5042157;28;20388;-84
2022/02/23 03:07:07;;;;;;;;;;;6.60;99.90;;;4.41;100.00;101245.19;5039346;28;19925;-84
2022/02/23 03:09:34;;;;;;;;;;;6.60;99.90;;;4.30;100.00;101246.94;5044390;28;19935;-84
2022/02/23 03:12:01;;;;;;;;;;;6.50;99.90;;;4.26;100.00;101253.53;5031600;28;19929;-85
2022/02/23 03:14:28;;;;;;;;;;;6.60;99.90;;;4.24;100.00;101255.50;5031305;28;19925;-85
2022/02/23 03:16:57;;;;;;;;;;;6.50;99.90;;;4.22;100.00;101257.44;5035524;28;19967;-84
2022/02/23 03:19:24;;;;;;;;;;;6.50;99.90;;;4.20;100.00;101259.41;5021264;28;19929;-84
2022/02/23 03:21:51;;;;;;;;;;;6.50;99.90;;;4.21;100.00;101261.16;5031418;28;19972;-84
2022/02/23 03:24:18;;;;;;;;;;;6.50;99.90;;;4.21;100.00;101269.22;5041312;28;19999;-85
2022/02/23 03:26:45;;;;;;;;;;;6.50;99.90;;;4.23;100.00;101259.19;5034470;28;19929;-84
2022/02/23 03:29:12;;;;;;;;;;;6.40;99.90;;;4.25;100.00;101267.16;5046172;28;19951;-84
2022/02/23 03:31:39;;;;;;;;;;;6.40;99.90;;;4.34;100.00;101268.22;5033134;28;20393;-84
2022/02/23 03:34:08;;;;;;;;;;;6.40;99.90;;;4.33;100.00;101274.59;5031500;28;19972;-84
2022/02/23 03:36:35;;;;;;;;;;;6.40;99.90;;;4.40;100.00;101276.66;5031103;28;19933;-85
2022/02/23 03:39:02;;;;;;;;;;;6.40;99.90;;;4.35;100.00;101278.88;5030955;28;19929;-84
2022/02/23 03:41:29;;;;;;;;;;;6.40;99.90;;;4.35;100.00;101284.25;5050917;28;19986;-84
2022/02/23 03:43:56;;;;;;;;;;;6.40;99.90;;;4.35;100.00;101288.81;5040365;28;19929;-84
2022/02/23 03:46:23;;;;;;;;;;;6.40;99.90;;;4.27;100.00;101292.97;5034513;28;19925;-84
2022/02/23 03:48:50;;;;;;;;;;;6.40;99.90;;;4.27;100.00;101300.22;5050495;28;19936;-84
2022/02/23 03:51:18;;;;;;;;;;;6.40;99.90;;;4.26;100.00;101296.63;5050605;28;20384;-84
2022/02/23 03:53:45;;;;;;;;;;;6.40;99.90;;;4.28;100.00;101299.22;5027019;28;20007;-84
2022/02/23 03:58:53;;;;;;;;;;;6.40;99.90;;;4.10;100.00;101302.41;5034251;28;19928;-84
2022/02/23 04:01:20;;;;;;;;;;;6.40;99.90;;;4.16;100.00;101311.84;5032273;28;20027;-85
2022/02/23 04:03:47;;;;;;;;;;;6.40;99.90;;;4.19;100.00;101310.72;5035752;28;19929;-84
2022/02/23 04:06:14;;;;;;;;;;;6.40;99.90;;;4.19;100.00;101327.78;5048303;28;19939;-84
2022/02/23 04:08:43;;;;;;;;;;;6.40;99.90;;;4.16;100.00;101327.16;5058265;28;19962;-84
2022/02/23 04:11:10;;;;;;;;;;;6.40;99.90;;;4.16;100.00;101336.09;5051911;28;20304;-84
2022/02/23 04:13:37;;;;;;;;;;;6.30;99.90;;;4.12;100.00;101337.31;5038519;28;19972;-84
2022/02/23 04:16:05;;;;;;;;;;;6.30;99.90;;;4.12;100.00;101342.69;5037128;28;20044;-84
2022/02/23 04:18:32;;;;;;;;;;;6.30;99.90;;;4.11;100.00;101343.66;5037580;28;19929;-85
2022/02/23 04:20:59;;;;;;;;;;;6.30;99.90;;;4.09;100.00;101351.00;5030511;28;20015;-84
2022/02/23 04:23:26;;;;;;;;;;;6.30;99.90;;;4.04;100.00;101355.94;5035327;28;19925;-84
2022/02/23 04:25:54;;;;;;;;;;;6.30;99.90;;;3.98;100.00;101354.59;5030403;28;19967;-84
2022/02/23 04:28:25;;;;;;;;;;;6.20;99.90;;;3.98;100.00;101357.28;5045908;28;19963;-84
2022/02/23 04:30:52;;;;;;;;;;;6.20;99.90;;;3.91;100.00;101364.97;5027071;28;19929;-85
2022/02/23 04:33:19;;;;;;;;;;;6.20;99.90;;;3.92;100.00;101368.50;5044558;28;20031;-84
2022/02/23 04:35:47;;;;;;;;;;;6.20;99.90;;;3.89;100.00;101364.22;5032069;28;19932;-84
2022/02/23 04:38:14;;;;;;;;;;;6.20;99.90;;;3.88;100.00;101357.16;5049204;28;20002;-84
2022/02/23 04:40:43;;;;;;;;;;;6.20;99.90;;;3.82;100.00;101362.13;5049809;28;20020;-84
2022/02/23 04:43:11;;;;;;;;;;;6.20;99.90;;;3.75;100.00;101367.16;5055654;28;19928;-84
2022/02/23 04:45:38;;;;;;;;;;;6.10;99.90;;;3.78;100.00;101366.91;5054763;28;19929;-84
2022/02/23 04:48:06;;;;;;;;;;;6.10;99.90;;;3.78;100.00;101383.06;5037634;28;20008;-85
2022/02/23 04:50:33;;;;;;;;;;;6.10;99.90;;;3.75;100.00;101393.19;5047358;28;20389;-84
2022/02/23 04:53:00;;;;;;;;;;;6.10;99.90;;;3.77;100.00;101381.34;5043263;28;19971;-84
2022/02/23 04:55:27;;;;;;;;;;;6.00;99.90;;;3.78;100.00;101387.59;5047673;28;19924;-84
2022/02/23 04:57:54;;;;;;;;;;;6.00;99.90;;;3.72;100.00;101386.22;5049566;28;19984;-85
2022/02/23 05:00:23;;;;;;;;;;;6.00;99.90;;;3.69;100.00;101389.16;5049524;28;20379;-84
2022/02/23 05:02:50;;;;;;;;;;;6.00;99.90;;;3.67;100.00;101391.94;5034306;28;19928;-84
2022/02/23 05:05:17;;;;;;;;;;;6.00;99.90;;;3.68;100.00;101398.22;5046132;28;20373;-84
2022/02/23 05:07:44;;;;;;;;;;;5.90;99.90;;;3.71;100.00;101398.84;5034366;28;19994;-84
2022/02/23 05:10:11;;;;;;;;;;;5.90;99.90;;;3.71;100.00;101403.34;5038034;28;19925;-84
2022/02/23 05:12:38;;;;;;;;;;;5.90;99.90;;;3.71;100.00;101403.34;5033093;28;19928;-84
2022/02/23 05:15:06;;;;;;;;;;;5.90;99.90;;;3.67;100.00;101404.56;5048884;28;19937;-84
2022/02/23 05:17:34;;;;;;;;;;;5.90;99.90;;;3.66;100.00;101409.09;5038983;28;19929;-84
2022/02/23 05:20:03;;;;;;;;;;;5.90;99.90;;;3.65;100.00;101410.06;5048778;28;19978;-84
2022/02/23 05:22:30;;;;;;;;;;;5.90;99.90;;;3.66;100.00;101416.31;5034360;28;19929;-84
2022/02/23 05:24:57;;;;;;;;;;;5.90;99.90;;;3.62;100.00;101420.22;5039723;28;20304;-84
2022/02/23 05:27:24;;;;;;;;;;;5.90;99.90;;;3.61;100.00;101429.25;5046071;28;20023;-84
2022/02/23 05:29:51;;;;;;;;;;;5.90;99.90;;;3.56;100.00;101426.94;5049194;28;20016;-85
2022/02/23 05:32:18;;;;;;;;;;;6.10;99.90;;;3.51;100.00;101435.34;5034311;28;20648;-85
2022/02/23 05:34:47;;;;;;;;;;;5.90;99.90;;;3.53;100.00;101438.78;5029459;28;20012;-84
2022/02/23 05:37:14;;;;;;;;;;;5.80;99.90;;;3.43;100.00;101443.13;5025980;28;19932;-84
2022/02/23 05:39:41;;;;;;;;;;;5.80;99.90;;;3.38;100.00;101439.94;5049136;28;19982;-85
2022/02/23 05:42:08;;;;;;;;;;;5.70;99.90;;;3.39;100.00;101446.16;5041992;28;20316;-84
2022/02/23 05:44:35;;;;;;;;;;;5.70;99.90;;;3.36;100.00;101439.19;5033069;28;19933;-84
2022/02/23 05:47:03;;;;;;;;;;;5.70;99.90;;;3.27;100.00;101443.41;5041653;28;20412;-84
2022/02/23 05:49:30;;;;;;;;;;;5.70;99.90;;;3.23;100.00;101449.16;5048870;28;20003;-84
2022/02/23 05:51:58;;;;;;;;;;;5.70;99.90;;;3.21;100.00;101443.03;5037018;28;20012;-85
2022/02/23 05:54:25;;;;;;;;;;;5.70;99.90;;;3.18;100.00;101438.75;5040859;28;19958;-84
2022/02/23 05:56:54;;;;;;;;;;;5.60;99.90;;;3.15;100.00;101451.56;5045439;28;19925;-84
2022/02/23 05:59:21;;;;;;;;;;;5.60;99.90;;;3.20;100.00;101446.66;5039513;28;20019;-84
2022/02/23 06:01:48;;;;;;;;;;;5.60;99.90;;;3.17;100.00;101463.06;5029467;28;20027;-84
2022/02/23 06:04:15;;;;;;;;;;;5.60;99.90;;;3.15;100.00;101459.63;5037671;28;20038;-84
2022/02/23 06:06:42;;;;;;;;;;;5.50;99.90;;;3.11;100.00;101457.16;5040281;28;20003;-84
2022/02/23 06:09:11;;;;;;;;;;;5.50;99.90;;;3.08;100.00;101454.66;5061606;28;19928;-84
2022/02/23 06:11:38;;;;;;;;;;;5.50;99.90;;;3.10;100.00;101462.63;5057190;28;19967;-84
2022/02/23 06:14:06;;;;;;;;;;;5.50;99.90;;;3.03;100.00;101462.25;5023525;28;20349;-82
2022/02/23 06:16:33;;;;;;;;;;;5.50;99.90;;;3.04;100.00;101468.47;5020211;28;20293;-80
2022/02/23 06:19:00;;;;;;;;;;;5.50;99.90;;;2.96;100.00;101463.66;5070318;23;19932;-81
2022/02/23 06:21:27;;;;;;;;;;;5.50;99.90;;;3.03;100.00;101474.84;5088337;28;19966;-85
2022/02/23 06:23:55;;;;;;;;;;;5.50;99.90;;;2.92;100.00;101472.91;5081685;28;20042;-86
2022/02/23 06:26:24;;;;;;;;;;;5.50;99.90;;;2.90;100.00;101472.16;5077167;28;19943;-88
2022/02/23 06:28:51;;;;;;;;;;;5.40;99.90;;;2.86;100.00;101474.22;5077501;28;20384;-88
2022/02/23 06:31:18;;;;;;;;;;;5.40;99.90;;;2.82;100.00;101482.59;5068087;28;19932;-89
2022/02/23 06:33:47;;;;;;;;;;;5.40;99.90;;;2.87;100.00;101478.59;5056941;28;20010;-86
2022/02/23 06:36:15;;;;;;;;;;;5.40;99.90;;;2.91;100.00;101480.13;5059344;28;19929;-89
2022/02/23 06:38:42;;;;;;;;;;;5.40;99.90;;;2.87;100.00;101480.44;5063950;28;19935;-90
2022/02/23 06:41:12;;;;;;;;;;;5.40;99.90;;;2.94;100.00;101489.78;5066224;28;19935;-89
2022/02/23 06:43:40;;;;;;;;;;;5.40;99.90;;;2.93;100.00;101493.44;5055662;28;19929;-87
2022/02/23 06:46:08;;;;;;;;;;;5.40;99.90;;;2.97;100.00;101494.09;5071162;28;19931;-87
2022/02/23 06:48:36;;;;;;;;;;;5.30;99.90;;;3.04;100.00;101498.91;5071717;28;19932;-90
2022/02/23 06:51:03;;;;;;;;;;;5.40;99.90;;;3.03;100.00;101494.50;5064632;28;20392;-90
2022/02/23 06:53:31;;;;;;;;;;;5.40;99.90;;;3.03;100.00;101501.72;5069207;28;20023;-90
2022/02/23 06:55:58;;;;;;;;;;;5.40;99.90;;;3.09;100.00;101494.06;5053124;28;20015;-89
2022/02/23 06:58:25;;;;;;;;;;;5.40;99.90;;;3.10;100.00;101503.84;5071792;28;19964;-89
2022/02/23 07:00:54;;;;;;;;;;;5.30;99.90;;;3.04;100.00;101496.22;5067846;28;19935;-87
2022/02/23 07:03:21;;;;;;;;;;;5.40;99.90;;;3.08;100.00;101507.59;5071045;28;19933;-88
2022/02/23 07:05:48;;;;;;;;;;;5.40;99.90;;;3.10;100.00;101501.16;5064065;28;19960;-89
2022/02/23 07:08:15;;;;;;;;;;;5.40;99.90;;;3.09;100.00;101504.81;5071665;28;20025;-87
2022/02/23 07:10:42;;;;;;;;;;;5.40;99.90;;;3.12;100.00;101509.97;5071472;28;19928;-88
2022/02/23 07:13:11;;;;;;;;;;;5.40;99.90;;;3.21;100.00;101504.88;5067198;28;20447;-87
2022/02/23 07:15:38;;;;;;;;;;;5.30;99.90;;;3.15;100.00;101516.09;5055502;28;19977;-90
2022/02/23 07:18:07;;;;;;;;;;;5.50;99.90;;;3.24;100.00;101512.75;5066836;28;20289;-88
2022/02/23 07:20:34;;;;;;;;;;;5.40;99.90;;;3.30;100.00;101517.66;5066327;28;19956;-90
2022/02/23 07:23:01;;;;;;;;;;;5.40;99.90;;;3.34;100.00;101516.47;5066365;28;20090;-89
2022/02/23 07:25:28;;;;;;;;;;;5.50;99.90;;;3.33;100.00;101506.66;5061596;28;19978;-89
2022/02/23 07:27:55;;;;;;;;;;;5.50;99.90;;;3.35;100.00;101515.50;5056608;28;20418;-86
2022/02/23 07:30:22;;;;;;;;;;;5.50;99.90;;;3.43;100.00;101523.88;5062744;28;19935;-87
2022/02/23 07:32:53;;;;;;;;;;;5.60;99.90;;;3.46;100.00;101518.25;5067146;28;19925;-92
2022/02/23 07:35:21;;;;;;;;;;;5.60;99.90;;;3.61;100.00;101527.00;5067848;28;19928;-89
2022/02/23 07:37:52;;;;;;;;;;;5.70;99.90;;;3.71;100.00;101525.38;5060168;28;19959;-87
2022/02/23 07:40:20;;;;;;;;;;;5.70;99.90;;;3.75;100.00;101523.31;5071387;28;19964;-85
2022/02/23 07:42:48;;;;;;;;;;;5.70;99.90;;;3.83;100.00;101528.97;5071283;28;19975;-86
2022/02/23 07:45:15;;;;;;;;;;;5.80;99.90;;;3.88;100.00;101526.78;5056231;28;19928;-85
2022/02/23 07:47:43;;;;;;;;;;;5.80;99.90;;;4.05;100.00;101524.63;5069090;28;19939;-86
2022/02/23 07:50:15;;;;;;;;;;;5.90;99.90;;;4.13;100.00;101521.34;5070995;28;20392;-86
2022/02/23 07:52:43;;;;;;;;;;;5.90;99.90;;;4.18;100.00;101532.63;5056329;28;19933;-86
2022/02/23 07:55:10;;;;;;;;;;;6.00;99.90;;;4.22;100.00;101536.81;5062539;28;19939;-86
2022/02/23 07:57:37;;;;;;;;;;;6.10;99.90;;;4.30;100.00;101540.63;5060942;28;19936;-85
2022/02/23 08:00:06;;;;;;;;;;;6.10;99.90;;;4.39;100.00;101543.59;5067574;28;19932;-86
2022/02/23 08:02:38;;;;;;;;;;;6.20;99.90;;;4.46;100.00;101542.13;5058853;28;19928;-86
2022/02/23 08:05:06;;;;;;;;;;;6.30;99.90;;;4.52;100.00;101538.97;5054064;28;20391;-85
2022/02/23 08:07:34;;;;;;;;;;;6.30;99.90;;;4.61;100.00;101540.94;5069018;28;20336;-86
2022/02/23 08:10:03;;;;;;;;;;;6.60;99.90;;;4.65;100.00;101539.72;5065551;28;19984;-86
2022/02/23 08:12:30;;;;;;;;;;;6.40;99.90;;;4.76;100.00;101540.69;5054640;28;19929;-86
2022/02/23 08:19:30;;;;;;;;;;;6.50;99.90;;;4.81;100.00;101538.50;5054592;28;19959;-87
2022/02/23 08:20:29;;;;;;;;;;;6.60;99.90;;;4.93;100.00;101548.31;5057078;28;19929;-85
2022/02/23 08:22:56;;;;;;;;;;;6.70;99.90;;;4.95;100.00;101556.28;5068380;28;19928;-86
2022/02/23 08:25:25;;;;;;;;;;;6.70;99.90;;;5.01;100.00;101558.50;5078464;28;19936;-86
2022/02/23 08:27:52;;;;;;;;;;;6.80;99.90;;;5.03;100.00;101553.84;5049679;28;20023;-87
2022/02/23 08:30:19;;;;;;;;;;;6.80;99.90;;;5.06;100.00;101559.84;5065904;28;20007;-88
2022/02/23 08:32:46;;;;;;;;;;;6.90;99.90;;;5.14;100.00;101564.63;5063225;28;19986;-87
2022/02/23 08:35:14;;;;;;;;;;;6.90;99.90;;;5.24;100.00;101559.34;5067036;28;19928;-86
2022/02/23 08:37:41;;;;;;;;;;;7.00;99.90;;;5.29;100.00;101549.91;5062819;28;19964;-86
2022/02/23 08:40:09;;;;;;;;;;;7.00;99.90;;;5.33;100.00;101553.22;5062842;28;19929;-87
2022/02/23 08:42:37;;;;;;;;;;;7.10;99.90;;;5.42;100.00;101560.53;5050339;28;19929;-86
2022/02/23 08:45:05;;;;;;;;;;;7.10;99.90;;;5.44;100.00;101557.72;5054269;28;20015;-87
2022/02/23 08:47:33;;;;;;;;;;;7.20;99.90;;;5.52;100.00;101562.47;5069016;28;19978;-88
2022/02/23 08:50:00;;;;;;;;;;;7.20;99.90;;;5.58;100.00;101565.53;5068067;28;20313;-88
2022/02/23 08:52:27;;;;;;;;;;;7.30;99.90;;;5.67;100.00;101563.91;5064775;28;20350;-92
2022/02/23 08:54:54;;;;;;;;;;;7.40;99.90;;;5.78;100.00;101565.72;5055346;28;19928;-87
2022/02/23 08:57:21;;;;;;;;;;;7.40;99.90;;;5.88;100.00;101567.56;5069715;28;19925;-88
2022/02/23 08:59:50;;;;;;;;;;;7.50;99.90;;;5.94;100.00;101565.31;5068779;28;19928;-88
2022/02/23 09:02:17;;;;;;;;;;;7.50;99.90;;;5.99;100.00;101563.97;5068179;28;20047;-89
2022/02/23 09:04:44;;;;;;;;;;;7.60;99.90;;;6.04;100.00;101566.28;5057279;28;19936;-89
2022/02/23 09:07:13;;;;;;;;;;;7.70;99.90;;;6.11;100.00;101570.19;5068300;28;19932;-88
2022/02/23 09:09:40;;;;;;;;;;;7.70;99.90;;;6.17;100.00;101576.91;5060435;28;19980;-89
2022/02/23 09:12:08;;;;;;;;;;;7.80;99.90;;;6.21;100.00;101573.84;5062311;28;19948;-90
2022/02/23 09:14:35;;;;;;;;;;;7.80;99.90;;;6.29;100.00;101581.28;5068765;28;19929;-85
2022/02/23 09:17:04;;;;;;;;;;;7.90;99.90;;;6.34;100.00;101578.19;5065831;28;19956;-87
2022/02/23 09:19:31;;;;;;;;;;;7.90;99.90;;;6.38;100.00;101577.81;5053356;28;20721;-88
2022/02/23 09:21:58;;;;;;;;;;;8.00;99.90;;;6.44;100.00;101576.41;5051430;28;19979;-87
2022/02/23 09:24:25;;;;;;;;;;;8.00;99.90;;;6.49;100.00;101576.88;5064663;28;20013;-88
2022/02/23 09:26:52;;;;;;;;;;;8.10;99.90;;;6.55;100.00;101579.06;5060207;28;20384;-88
2022/02/23 09:29:19;;;;;;;;;;;8.10;99.90;;;6.62;100.00;101571.25;5062353;28;19929;-87
2022/02/23 09:31:46;;;;;;;;;;;8.20;99.90;;;6.67;100.00;101571.72;5068748;28;19981;-88
2022/02/23 09:34:16;;;;;;;;;;;8.20;99.90;;;6.74;100.00;101575.63;5063121;28;19929;-87
2022/02/23 09:36:43;;;;;;;;;;;8.30;99.90;;;6.76;100.00;101570.06;5054538;28;19990;-87
2022/02/23 09:39:10;;;;;;;;;;;8.30;99.90;;;6.79;100.00;101572.50;5061654;28;20023;-87
2022/02/23 09:41:39;;;;;;;;;;;8.30;99.90;;;6.82;100.00;101578.50;5052025;28;19928;-88
2022/02/23 09:44:07;;;;;;;;;;;8.40;99.90;;;6.87;100.00;101569.97;5062878;28;19976;-88
2022/02/23 09:46:35;;;;;;;;;;;8.40;99.90;;;6.90;100.00;101558.91;5066082;28;19938;-88
2022/02/23 09:49:02;;;;;;;;;;;8.50;99.90;;;6.92;100.00;101556.91;5061464;28;19935;-89
2022/02/23 09:51:30;;;;;;;;;;;8.50;99.90;;;6.93;100.00;101552.34;5073706;28;20400;-85
2022/02/23 09:53:57;;;;;;;;;;;8.50;99.90;;;7.00;100.00;101559.78;5069672;28;19982;-85
2022/02/23 09:56:26;;;;;;;;;;;8.60;99.90;;;7.03;100.00;101562.22;5068121;28;19940;-85
2022/02/23 09:58:54;;;;;;;;;;;8.60;99.90;;;7.09;100.00;101559.97;5065076;28;19928;-85
2022/02/23 10:01:23;;;;;;;;;;;8.60;99.90;;;7.12;100.00;101556.97;5071980;28;19931;-86
2022/02/23 10:03:51;;;;;;;;;;;8.60;99.90;;;7.15;100.00;101554.00;5059450;28;19925;-85
2022/02/23 10:06:20;;;;;;;;;;;8.70;99.90;;;7.17;100.00;101550.16;5068239;28;19968;-85
2022/02/23 10:08:48;;;;;;;;;;;8.70;99.90;;;7.20;100.00;101549.06;5070884;28;20026;-85
2022/02/23 10:11:19;;;;;;;;;;;8.70;99.90;;;7.22;100.00;101534.38;5071145;28;19928;-85
2022/02/23 10:13:50;;;;;;;;;;;8.80;99.90;;;7.32;100.00;101550.66;5076127;28;19931;-85
2022/02/23 10:16:17;;;;;;;;;;;8.80;99.90;;;7.38;100.00;101550.09;5071021;28;19929;-86
2022/02/23 10:18:45;;;;;;;;;;;8.90;99.90;;;7.40;100.00;101555.38;5071434;28;19932;-85
2022/02/23 10:21:12;;;;;;;;;;;8.90;99.90;;;7.41;100.00;101549.81;5055432;28;19928;-85
2022/02/23 10:23:39;;;;;;;;;;;9.00;99.90;;;7.47;100.00;101550.28;5061264;28;19928;-84
2022/02/23 10:26:12;;;;;;;;;;;9.00;99.90;;;7.50;100.00;101553.56;5067837;28;19924;-85
2022/02/23 10:28:40;;;;;;;;;;;9.00;99.90;;;7.50;100.00;101544.56;5070948;28;19928;-85
2022/02/23 10:31:09;;;;;;;;;;;9.00;99.90;;;7.55;100.00;101553.13;5067777;28;19932;-84
2022/02/23 10:33:38;;;;;;;;;;;9.00;99.90;;;7.57;100.00;101552.00;5072411;28;19924;-86
2022/02/23 10:36:07;;;;;;;;;;;9.10;99.90;;;7.62;100.00;101543.47;5067758;28;19932;-87
2022/02/23 10:38:37;;;;;;;;;;;9.10;99.90;;;7.68;100.00;101545.59;5061457;28;19956;-87
2022/02/23 10:41:06;;;;;;;;;;;9.20;99.90;;;7.75;100.00;101554.91;5067440;28;19933;-87
2022/02/23 10:43:36;;;;;;;;;;;9.30;99.90;;;7.77;100.00;101546.63;5061424;28;19928;-87
2022/02/23 10:46:07;;;;;;;;;;;9.30;99.90;;;7.78;100.00;101543.75;5066723;28;20068;-86
2022/02/23 10:48:39;;;;;;;;;;;9.30;99.90;;;7.81;100.00;101537.22;5059479;28;20024;-87
2022/02/23 10:51:08;;;;;;;;;;;9.30;99.90;;;7.78;100.00;101532.91;5058219;28;19973;-86
2022/02/23 10:53:36;;;;;;;;;;;9.40;99.90;;;7.87;98.40;101546.63;5060101;28;20043;-87
2022/02/23 10:56:23;;;;;;;;;;;9.40;99.90;;;7.88;98.24;101532.06;5055786;28;20029;-87
2022/02/23 10:59:02;;;;;;;;;;;9.40;99.90;;;7.93;96.28;101540.63;5060252;28;20402;-87
2022/02/23 11:01:29;;;;;;;;;;;9.50;99.90;;;7.93;95.68;101529.81;5067783;28;20793;-86
2022/02/23 11:03:57;;;;;;;;;;;9.50;99.90;;;7.96;96.10;101524.09;5060362;28;20015;-87
2022/02/23 11:06:24;;;;;;;;;;;9.50;99.90;;;7.97;95.80;101520.38;5066027;28;20561;-87
2022/02/23 11:08:55;;;;;;;;;;;9.50;99.90;;;7.98;95.43;101522.09;5070888;28;19928;-86
2022/02/23 11:11:24;;;;;;;;;;;9.50;99.90;;;7.98;95.54;101519.41;5068504;28;19955;-87
2022/02/23 11:13:52;;;;;;;;;;;9.50;99.90;;;8.03;95.42;101517.09;5055105;28;19960;-87
2022/02/23 11:16:21;;;;;;;;;;;9.50;99.90;;;8.04;96.24;101521.53;5060436;28;19930;-87
2022/02/23 11:18:48;;;;;;;;;;;9.60;99.90;;;8.03;95.58;101515.25;5062589;28;20013;-86
2022/02/23 11:21:17;;;;;;;;;;;9.60;99.90;;;8.10;92.45;101510.09;5063118;28;19928;-87
2022/02/23 11:23:46;;;;;;;;;;;9.60;99.90;;;8.14;92.85;101506.09;5065896;28;19939;-87
2022/02/23 11:26:15;;;;;;;;;;;9.70;99.90;;;8.16;93.26;101509.50;5061261;28;19929;-87
2022/02/23 11:28:47;;;;;;;;;;;9.70;99.90;;;8.15;90.89;101502.41;5061121;28;20741;-87
2022/02/23 11:31:15;;;;;;;;;;;9.70;98.80;;;8.20;90.25;101504.66;5069797;28;19978;-85
2022/02/23 11:33:57;;;;;;;;;;;9.80;98.30;;;8.21;87.60;101501.81;5066840;28;19970;-87
2022/02/23 11:36:26;;;;;;;;;;;9.80;98.80;;;8.26;88.47;101508.66;5060932;28;20046;-86
2022/02/23 11:38:54;;;;;;;;;;;9.80;98.30;;;8.27;89.93;101507.66;5067184;28;19964;-87
2022/02/23 11:41:25;;;;;;;;;;;9.80;98.60;;;8.25;89.80;101502.38;5050542;28;20359;-87
2022/02/23 11:44:02;;;;;;;;;;;9.80;98.40;;;8.25;89.86;101499.66;5058405;28;20415;-88
2022/02/23 11:46:58;;;;;;;;;;;9.80;97.90;;;8.29;89.36;101497.53;5056016;28;19928;-88
2022/02/23 11:49:45;;;;;;;;;;;9.80;97.90;;;8.28;88.93;101491.25;5070072;28;19960;-89
2022/02/23 11:52:52;;;;;;;;;;;9.80;98.00;;;8.31;89.65;101490.94;5068159;28;19936;-88
2022/02/23 11:55:56;;;;;;;;;;;9.90;97.20;;;8.30;87.73;101489.25;5060623;28;19944;-88
2022/02/23 11:59:07;;;;;;;;;;;9.80;97.30;;;8.35;88.15;101486.09;5065497;28;19931;-88